Plato — 8PRX — position and weather

sailwx.info

Track history (hours):
 
Tides and Currents Weather Stations Pressure Air Temp Water Temp Dewpoint Dewpoint Depression Visibility Wind Speed Wind Dir Waves Ship Positions

Plato

Last reported at 2017-Feb-25 13:10 UTC. Time now 2017-Feb-26 03:24 UTC.
Position N 60°50' E 004°17'.

Length 89 m; draft 4.5 m.

Type: Cargo ship. MMSI: 314189000.

Date/timePositionNaut miles runAvg speedWind from/ knotsBaromVisibWave heightAir tempDewpointWater temp
2017-Feb-25 13:10N 60°50' E 004°17'2 2.4
2017-Feb-25 12:33N 60°51' E 004°17'2 2.2
2017-Feb-25 11:33N 60°53' E 004°17'3 2.5
2017-Feb-25 10:33N 60°56' E 004°17'3 2.5
2017-Feb-25 09:33N 60°58' E 004°17'3 3.0
2017-Feb-25 08:33N 61°01' E 004°18'3 3.4
2017-Feb-25 07:33N 61°05' E 004°18'5 4.6
2017-Feb-25 06:33N 61°09' E 004°19'6 6.5
2017-Feb-25 05:33N 61°16' E 004°20'7 7.2
2017-Feb-25 04:33N 61°23' E 004°21'8 8.0
2017-Feb-25 03:33N 61°31' E 004°23'9 8.7
2017-Feb-25 02:32N 61°40' E 004°26'9 9.2
2017-Feb-25 01:32N 61°48' E 004°32'9 9.0
2017-Feb-25 00:33N 61°57' E 004°39'9 9.1
2017-Feb-24 23:33N 62°05' E 004°47'9 9.2
2017-Feb-24 22:33N 62°13' E 004°57'9 9.0
2017-Feb-24 21:33N 62°21' E 005°06'9 8.6
2017-Feb-24 20:33N 62°28' E 005°16'9 8.6
2017-Feb-24 19:32N 62°36' E 005°26'9 8.6
2017-Feb-24 18:33N 62°43' E 005°36'9 9.1
2017-Feb-24 17:33N 62°50' E 005°46'264 9.3
2017-Feb-23 13:19N 66°30' E 011°28'7 8.8
2017-Feb-23 12:33N 66°35' E 011°37'56 9.3
2017-Feb-23 06:33N 67°19' E 013°04'10 9.8
2017-Feb-23 05:33N 67°26' E 013°21'1010.3
2017-Feb-23 04:33N 67°34' E 013°39'10 9.6
2017-Feb-23 03:33N 67°41' E 013°56'1010.0
2017-Feb-23 02:33N 67°49' E 014°14'1010.2
2017-Feb-23 01:33N 67°56' E 014°32'1110.6
2017-Feb-23 00:33N 68°04' E 014°52'1110.6
2017-Feb-22 23:33N 68°09' E 015°17'1110.9
2017-Feb-22 22:33N 68°15' E 015°41'1110.7
2017-Feb-22 21:33N 68°23' E 016°00'1010.2
2017-Feb-22 20:32N 68°32' E 016°12'8 8.2
2017-Feb-22 19:33N 68°35' E 016°33'1010.2
2017-Feb-22 18:33N 68°44' E 016°45'1110.6
2017-Feb-22 17:33N 68°53' E 016°60'1110.5
2017-Feb-22 16:33N 69°02' E 017°18'1010.1
2017-Feb-22 15:33N 69°08' E 017°41'10 9.7
2017-Feb-22 14:33N 69°13' E 018°04'0 0.4
2017-Feb-22 13:33N 69°13' E 018°05'0 0.0
2017-Feb-22 12:33N 69°13' E 018°05'0 0.0
2017-Feb-22 11:33N 69°13' E 018°05'0 0.0
2017-Feb-22 10:33N 69°13' E 018°05'0 0.0
2017-Feb-22 09:33N 69°13' E 018°05'0 0.0
2017-Feb-22 08:33N 69°13' E 018°05'0 0.0
2017-Feb-22 07:33N 69°13' E 018°05'0 0.0
2017-Feb-22 06:33N 69°13' E 018°05'0 0.0
2017-Feb-22 05:33N 69°13' E 018°05'0 0.0
2017-Feb-22 04:33N 69°13' E 018°05'0 0.0
2017-Feb-22 03:33N 69°13' E 018°05'0 0.0
2017-Feb-22 02:33N 69°13' E 018°05'0 0.0
2017-Feb-22 01:33N 69°13' E 018°05'0 0.0
2017-Feb-22 00:33N 69°13' E 018°05'0 0.0
2017-Feb-21 23:33N 69°13' E 018°05'0 0.0
2017-Feb-21 22:33N 69°13' E 018°05'0 0.0
2017-Feb-21 21:33N 69°13' E 018°05'0 0.0
2017-Feb-21 20:33N 69°13' E 018°05'0 0.0
2017-Feb-21 19:33N 69°13' E 018°05'0 0.0
2017-Feb-21 18:33N 69°13' E 018°05'0 0.0
2017-Feb-21 17:33N 69°13' E 018°05'0 0.0
2017-Feb-21 16:33N 69°13' E 018°05'0 0.0
2017-Feb-21 15:33N 69°13' E 018°05'0 0.0
2017-Feb-21 14:33N 69°13' E 018°05'0 0.0
2017-Feb-21 13:33N 69°13' E 018°05'0 0.0
2017-Feb-21 12:33N 69°13' E 018°05'0 0.0
2017-Feb-21 11:33N 69°13' E 018°05'0 0.0
2017-Feb-21 10:33N 69°13' E 018°05'0 0.0
2017-Feb-21 09:33N 69°13' E 018°05'0 0.0
2017-Feb-21 08:33N 69°13' E 018°05'0 0.0
2017-Feb-21 07:33N 69°13' E 018°05'0 0.0
2017-Feb-21 06:33N 69°13' E 018°05'0 0.0
2017-Feb-21 05:33N 69°13' E 018°05'0 0.0
2017-Feb-21 04:33N 69°13' E 018°05'0 0.0
2017-Feb-21 03:33N 69°13' E 018°05'0 0.0
2017-Feb-21 02:33N 69°13' E 018°05'0 0.0
2017-Feb-21 01:33N 69°13' E 018°05'0 0.0
2017-Feb-21 00:33N 69°13' E 018°05'0 0.0
2017-Feb-20 23:33N 69°13' E 018°05'0 0.0
2017-Feb-20 22:33N 69°13' E 018°05'0 0.0
2017-Feb-20 21:33N 69°13' E 018°05'0 0.0
2017-Feb-20 20:33N 69°13' E 018°05'0 0.0
2017-Feb-20 19:33N 69°13' E 018°05'0 0.0
2017-Feb-20 18:33N 69°13' E 018°05'0 0.0
2017-Feb-20 17:33N 69°13' E 018°05'0 0.0
2017-Feb-20 16:33N 69°13' E 018°05'0 0.0
2017-Feb-20 15:33N 69°13' E 018°05'0 0.0
2017-Feb-20 14:33N 69°13' E 018°05'0 0.0
2017-Feb-20 13:33N 69°13' E 018°05'0 0.0
2017-Feb-20 12:33N 69°13' E 018°05'0 0.0
2017-Feb-20 11:33N 69°13' E 018°05'0 0.0
2017-Feb-20 10:33N 69°13' E 018°05'0 0.0
2017-Feb-20 09:33N 69°13' E 018°05'0 0.0
2017-Feb-20 08:33N 69°13' E 018°05'0 0.0
2017-Feb-20 07:33N 69°13' E 018°05'0 0.0
2017-Feb-20 06:33N 69°13' E 018°05'0 0.0
2017-Feb-20 05:33N 69°13' E 018°05'0 0.0
2017-Feb-20 04:33N 69°13' E 018°05'0 0.0
2017-Feb-20 03:33N 69°13' E 018°05'0 0.0
2017-Feb-20 02:33N 69°13' E 018°05'0 0.0
2017-Feb-20 01:33N 69°13' E 018°05'0 0.0
2017-Feb-20 00:33N 69°13' E 018°05'0 0.0
2017-Feb-19 23:33N 69°13' E 018°05'0 0.0
2017-Feb-19 22:33N 69°13' E 018°05'0 0.0
2017-Feb-19 21:33N 69°13' E 018°05'0 0.0
2017-Feb-19 20:33N 69°13' E 018°05'0 0.0
2017-Feb-19 19:33N 69°13' E 018°05'0 0.0
2017-Feb-19 18:33N 69°13' E 018°05'0 0.0
2017-Feb-19 17:33N 69°13' E 018°05'0 0.0
2017-Feb-19 16:33N 69°13' E 018°05'0 0.0
2017-Feb-19 15:33N 69°13' E 018°05'0 0.0
2017-Feb-19 14:30N 69°13' E 018°05'0 0.0
2017-Feb-19 13:33N 69°13' E 018°05'0 0.0
2017-Feb-19 12:33N 69°13' E 018°05'0 0.0
2017-Feb-19 11:33N 69°13' E 018°05'0 0.0
2017-Feb-19 10:33N 69°13' E 018°05'0 0.0
2017-Feb-19 09:33N 69°13' E 018°05'0 0.0
2017-Feb-19 08:33N 69°13' E 018°05'0 0.0
2017-Feb-19 07:33N 69°13' E 018°05'0 0.0
2017-Feb-19 06:33N 69°13' E 018°05'0 0.0
2017-Feb-19 05:33N 69°13' E 018°05'0 0.0
2017-Feb-19 04:33N 69°13' E 018°05'0 0.0
2017-Feb-19 03:33N 69°13' E 018°05'0 0.0
2017-Feb-19 02:33N 69°13' E 018°05'0 0.0
2017-Feb-19 01:33N 69°13' E 018°05'0 0.0
2017-Feb-19 00:33N 69°13' E 018°05'0 0.0
2017-Feb-18 23:33N 69°13' E 018°05'0 0.0
2017-Feb-18 22:33N 69°13' E 018°05'0 0.0
2017-Feb-18 21:33N 69°13' E 018°05'0 0.0
2017-Feb-18 20:33N 69°13' E 018°05'0 0.0
2017-Feb-18 19:33N 69°13' E 018°05'0 0.0
2017-Feb-18 18:33N 69°13' E 018°05'0 0.0
2017-Feb-18 17:33N 69°13' E 018°05'0 0.0
2017-Feb-18 16:33N 69°13' E 018°05'0 0.0
2017-Feb-18 15:33N 69°13' E 018°05'0 0.0
2017-Feb-18 14:33N 69°13' E 018°05'0 0.0
2017-Feb-18 13:33N 69°13' E 018°05'0 0.0
2017-Feb-18 12:33N 69°13' E 018°05'0 0.0
2017-Feb-18 11:33N 69°13' E 018°05'0 0.0
2017-Feb-18 10:33N 69°13' E 018°05'0 0.0
2017-Feb-18 09:33N 69°13' E 018°05'0 0.0
2017-Feb-18 08:33N 69°13' E 018°05'0 0.0
2017-Feb-18 07:33N 69°13' E 018°05'0 0.0
2017-Feb-18 06:33N 69°13' E 018°05'0 0.0
2017-Feb-18 05:33N 69°13' E 018°05'0 0.0
2017-Feb-18 04:33N 69°13' E 018°05'0 0.0
2017-Feb-18 03:33N 69°13' E 018°05'0 0.0
2017-Feb-18 02:33N 69°13' E 018°05'0 0.0
2017-Feb-18 01:33N 69°13' E 018°05'0 0.0
2017-Feb-18 00:32N 69°13' E 018°05'0 0.0
2017-Feb-17 23:32N 69°13' E 018°05'0 0.0
2017-Feb-17 22:32N 69°13' E 018°05'0 0.0
2017-Feb-17 21:32N 69°13' E 018°05'0 0.0
2017-Feb-17 20:32N 69°13' E 018°05'0 0.0
2017-Feb-17 19:32N 69°13' E 018°05'0 0.0
2017-Feb-17 18:32N 69°13' E 018°05'0 0.0
2017-Feb-17 17:32N 69°13' E 018°05'0 0.0
2017-Feb-17 16:32N 69°13' E 018°05'0 0.0
2017-Feb-17 15:32N 69°13' E 018°05'0 0.0
2017-Feb-17 14:32N 69°13' E 018°05'0 0.0
2017-Feb-17 13:32N 69°13' E 018°05'0 0.0
2017-Feb-17 12:32N 69°13' E 018°05'0 0.0
2017-Feb-17 11:32N 69°13' E 018°05'0 0.0
2017-Feb-17 10:32N 69°13' E 018°05'0 0.0
2017-Feb-17 09:32N 69°13' E 018°05'0 0.0
2017-Feb-17 08:32N 69°13' E 018°05'0 0.0
2017-Feb-17 07:32N 69°13' E 018°05'0 0.0
2017-Feb-17 06:32N 69°13' E 018°05'0 0.0
2017-Feb-17 05:32N 69°13' E 018°05'0 0.0
2017-Feb-17 04:32N 69°13' E 018°05'0 0.0
2017-Feb-17 03:32N 69°13' E 018°05'0 0.0
2017-Feb-17 02:32N 69°13' E 018°05'0 0.0
2017-Feb-17 01:32N 69°13' E 018°05'0 0.0
2017-Feb-17 00:32N 69°13' E 018°05'0 0.0
2017-Feb-16 23:32N 69°13' E 018°05'0 0.0
2017-Feb-16 22:32N 69°13' E 018°05'0 0.0
2017-Feb-16 21:32N 69°13' E 018°05'0 0.0
2017-Feb-16 20:32N 69°13' E 018°05'0 0.0
2017-Feb-16 19:32N 69°13' E 018°05'0 0.0
2017-Feb-16 18:32N 69°13' E 018°05'0 0.0
2017-Feb-16 17:32N 69°13' E 018°05'0 0.0
2017-Feb-16 16:32N 69°13' E 018°05'0 0.0
2017-Feb-16 15:32N 69°13' E 018°05'0 0.0
2017-Feb-16 14:32N 69°13' E 018°05'0 0.0
2017-Feb-16 13:32N 69°13' E 018°05'0 0.0
2017-Feb-16 12:32N 69°13' E 018°05'0 0.0
2017-Feb-16 11:32N 69°13' E 018°05'0 0.0
2017-Feb-16 10:32N 69°13' E 018°05'0 0.0
2017-Feb-16 09:32N 69°13' E 018°05'0 0.0
2017-Feb-16 08:32N 69°13' E 018°05'0 0.0
2017-Feb-16 07:32N 69°13' E 018°05'0 0.0
2017-Feb-16 06:32N 69°13' E 018°05'0 0.0
2017-Feb-16 05:32N 69°13' E 018°05'6 6.1
2017-Feb-16 04:33N 69°09' E 017°53'1110.6
2017-Feb-16 03:33N 69°05' E 017°25'1010.4
2017-Feb-16 02:33N 68°57' E 017°08'1110.6
2017-Feb-16 01:33N 68°48' E 016°51'1110.9
2017-Feb-16 00:32N 68°39' E 016°36'9 8.8
2017-Feb-15 23:33N 68°33' E 016°17'1010.4
2017-Feb-15 22:33N 68°25' E 016°02'10 9.5
2017-Feb-15 21:33N 68°17' E 015°47'9 9.4
2017-Feb-15 20:33N 68°11' E 015°27'9 9.4
2017-Feb-15 19:33N 68°06' E 015°05'9 9.3
2017-Feb-15 18:33N 68°01' E 014°44'10 9.7
2017-Feb-15 17:33N 67°54' E 014°28'9 9.2
2017-Feb-15 16:33N 67°47' E 014°12'9 8.9
2017-Feb-15 15:32N 67°41' E 013°55'9 9.4
2017-Feb-15 14:33N 67°34' E 013°39'9 9.1
2017-Feb-15 13:33N 67°27' E 013°23'  
Track history (hours):
 
Tides and Currents Weather Stations Pressure Air Temp Water Temp Dewpoint Dewpoint Depression Visibility Wind Speed Wind Dir Waves Ship Positions

Plato

Last reported at 2017-Feb-25 13:10 UTC. Time now 2017-Feb-26 03:24 UTC.
Position N 60°50' E 004°17'.

Length 89 m; draft 4.5 m.

Type: Cargo ship. MMSI: 314189000.

Date/timePositionNaut miles runAvg speedWind from/ knotsBaromVisibWave heightAir tempDewpointWater temp
2017-Feb-25 13:10N 60°50' E 004°17'2 2.4
2017-Feb-25 12:33N 60°51' E 004°17'2 2.2
2017-Feb-25 11:33N 60°53' E 004°17'3 2.5
2017-Feb-25 10:33N 60°56' E 004°17'3 2.5
2017-Feb-25 09:33N 60°58' E 004°17'3 3.0
2017-Feb-25 08:33N 61°01' E 004°18'3 3.4
2017-Feb-25 07:33N 61°05' E 004°18'5 4.6
2017-Feb-25 06:33N 61°09' E 004°19'6 6.5
2017-Feb-25 05:33N 61°16' E 004°20'7 7.2
2017-Feb-25 04:33N 61°23' E 004°21'8 8.0
2017-Feb-25 03:33N 61°31' E 004°23'9 8.7
2017-Feb-25 02:32N 61°40' E 004°26'9 9.2
2017-Feb-25 01:32N 61°48' E 004°32'9 9.0
2017-Feb-25 00:33N 61°57' E 004°39'9 9.1
2017-Feb-24 23:33N 62°05' E 004°47'9 9.2
2017-Feb-24 22:33N 62°13' E 004°57'9 9.0
2017-Feb-24 21:33N 62°21' E 005°06'9 8.6
2017-Feb-24 20:33N 62°28' E 005°16'9 8.6
2017-Feb-24 19:32N 62°36' E 005°26'9 8.6
2017-Feb-24 18:33N 62°43' E 005°36'9 9.1
2017-Feb-24 17:33N 62°50' E 005°46'264 9.3
2017-Feb-23 13:19N 66°30' E 011°28'7 8.8
2017-Feb-23 12:33N 66°35' E 011°37'56 9.3
2017-Feb-23 06:33N 67°19' E 013°04'10 9.8
2017-Feb-23 05:33N 67°26' E 013°21'1010.3
2017-Feb-23 04:33N 67°34' E 013°39'10 9.6
2017-Feb-23 03:33N 67°41' E 013°56'1010.0
2017-Feb-23 02:33N 67°49' E 014°14'1010.2
2017-Feb-23 01:33N 67°56' E 014°32'1110.6
2017-Feb-23 00:33N 68°04' E 014°52'1110.6
2017-Feb-22 23:33N 68°09' E 015°17'1110.9
2017-Feb-22 22:33N 68°15' E 015°41'1110.7
2017-Feb-22 21:33N 68°23' E 016°00'1010.2
2017-Feb-22 20:32N 68°32' E 016°12'8 8.2
2017-Feb-22 19:33N 68°35' E 016°33'1010.2
2017-Feb-22 18:33N 68°44' E 016°45'1110.6
2017-Feb-22 17:33N 68°53' E 016°60'1110.5
2017-Feb-22 16:33N 69°02' E 017°18'1010.1
2017-Feb-22 15:33N 69°08' E 017°41'10 9.7
2017-Feb-22 14:33N 69°13' E 018°04'0 0.4
2017-Feb-22 13:33N 69°13' E 018°05'0 0.0
2017-Feb-22 12:33N 69°13' E 018°05'0 0.0
2017-Feb-22 11:33N 69°13' E 018°05'0 0.0
2017-Feb-22 10:33N 69°13' E 018°05'0 0.0
2017-Feb-22 09:33N 69°13' E 018°05'0 0.0
2017-Feb-22 08:33N 69°13' E 018°05'0 0.0
2017-Feb-22 07:33N 69°13' E 018°05'0 0.0
2017-Feb-22 06:33N 69°13' E 018°05'0 0.0
2017-Feb-22 05:33N 69°13' E 018°05'0 0.0
2017-Feb-22 04:33N 69°13' E 018°05'0 0.0
2017-Feb-22 03:33N 69°13' E 018°05'0 0.0
2017-Feb-22 02:33N 69°13' E 018°05'0 0.0
2017-Feb-22 01:33N 69°13' E 018°05'0 0.0
2017-Feb-22 00:33N 69°13' E 018°05'0 0.0
2017-Feb-21 23:33N 69°13' E 018°05'0 0.0
2017-Feb-21 22:33N 69°13' E 018°05'0 0.0
2017-Feb-21 21:33N 69°13' E 018°05'0 0.0
2017-Feb-21 20:33N 69°13' E 018°05'0 0.0
2017-Feb-21 19:33N 69°13' E 018°05'0 0.0
2017-Feb-21 18:33N 69°13' E 018°05'0 0.0
2017-Feb-21 17:33N 69°13' E 018°05'0 0.0
2017-Feb-21 16:33N 69°13' E 018°05'0 0.0
2017-Feb-21 15:33N 69°13' E 018°05'0 0.0
2017-Feb-21 14:33N 69°13' E 018°05'0 0.0
2017-Feb-21 13:33N 69°13' E 018°05'0 0.0
2017-Feb-21 12:33N 69°13' E 018°05'0 0.0
2017-Feb-21 11:33N 69°13' E 018°05'0 0.0
2017-Feb-21 10:33N 69°13' E 018°05'0 0.0
2017-Feb-21 09:33N 69°13' E 018°05'0 0.0
2017-Feb-21 08:33N 69°13' E 018°05'0 0.0
2017-Feb-21 07:33N 69°13' E 018°05'0 0.0
2017-Feb-21 06:33N 69°13' E 018°05'0 0.0
2017-Feb-21 05:33N 69°13' E 018°05'0 0.0
2017-Feb-21 04:33N 69°13' E 018°05'0 0.0
2017-Feb-21 03:33N 69°13' E 018°05'0 0.0
2017-Feb-21 02:33N 69°13' E 018°05'0 0.0
2017-Feb-21 01:33N 69°13' E 018°05'0 0.0
2017-Feb-21 00:33N 69°13' E 018°05'0 0.0
2017-Feb-20 23:33N 69°13' E 018°05'0 0.0
2017-Feb-20 22:33N 69°13' E 018°05'0 0.0
2017-Feb-20 21:33N 69°13' E 018°05'0 0.0
2017-Feb-20 20:33N 69°13' E 018°05'0 0.0
2017-Feb-20 19:33N 69°13' E 018°05'0 0.0
2017-Feb-20 18:33N 69°13' E 018°05'0 0.0
2017-Feb-20 17:33N 69°13' E 018°05'0 0.0
2017-Feb-20 16:33N 69°13' E 018°05'0 0.0
2017-Feb-20 15:33N 69°13' E 018°05'0 0.0
2017-Feb-20 14:33N 69°13' E 018°05'0 0.0
2017-Feb-20 13:33N 69°13' E 018°05'0 0.0
2017-Feb-20 12:33N 69°13' E 018°05'0 0.0
2017-Feb-20 11:33N 69°13' E 018°05'0 0.0
2017-Feb-20 10:33N 69°13' E 018°05'0 0.0
2017-Feb-20 09:33N 69°13' E 018°05'0 0.0
2017-Feb-20 08:33N 69°13' E 018°05'0 0.0
2017-Feb-20 07:33N 69°13' E 018°05'0 0.0
2017-Feb-20 06:33N 69°13' E 018°05'0 0.0
2017-Feb-20 05:33N 69°13' E 018°05'0 0.0
2017-Feb-20 04:33N 69°13' E 018°05'0 0.0
2017-Feb-20 03:33N 69°13' E 018°05'0 0.0
2017-Feb-20 02:33N 69°13' E 018°05'0 0.0
2017-Feb-20 01:33N 69°13' E 018°05'0 0.0
2017-Feb-20 00:33N 69°13' E 018°05'0 0.0
2017-Feb-19 23:33N 69°13' E 018°05'0 0.0
2017-Feb-19 22:33N 69°13' E 018°05'0 0.0
2017-Feb-19 21:33N 69°13' E 018°05'0 0.0
2017-Feb-19 20:33N 69°13' E 018°05'0 0.0
2017-Feb-19 19:33N 69°13' E 018°05'0 0.0
2017-Feb-19 18:33N 69°13' E 018°05'0 0.0
2017-Feb-19 17:33N 69°13' E 018°05'0 0.0
2017-Feb-19 16:33N 69°13' E 018°05'0 0.0
2017-Feb-19 15:33N 69°13' E 018°05'0 0.0
2017-Feb-19 14:30N 69°13' E 018°05'0 0.0
2017-Feb-19 13:33N 69°13' E 018°05'0 0.0
2017-Feb-19 12:33N 69°13' E 018°05'0 0.0
2017-Feb-19 11:33N 69°13' E 018°05'0 0.0
2017-Feb-19 10:33N 69°13' E 018°05'0 0.0
2017-Feb-19 09:33N 69°13' E 018°05'0 0.0
2017-Feb-19 08:33N 69°13' E 018°05'0 0.0
2017-Feb-19 07:33N 69°13' E 018°05'0 0.0
2017-Feb-19 06:33N 69°13' E 018°05'0 0.0
2017-Feb-19 05:33N 69°13' E 018°05'0 0.0
2017-Feb-19 04:33N 69°13' E 018°05'0 0.0
2017-Feb-19 03:33N 69°13' E 018°05'0 0.0
2017-Feb-19 02:33N 69°13' E 018°05'0 0.0
2017-Feb-19 01:33N 69°13' E 018°05'0 0.0
2017-Feb-19 00:33N 69°13' E 018°05'0 0.0
2017-Feb-18 23:33N 69°13' E 018°05'0 0.0
2017-Feb-18 22:33N 69°13' E 018°05'0 0.0
2017-Feb-18 21:33N 69°13' E 018°05'0 0.0
2017-Feb-18 20:33N 69°13' E 018°05'0 0.0
2017-Feb-18 19:33N 69°13' E 018°05'0 0.0
2017-Feb-18 18:33N 69°13' E 018°05'0 0.0
2017-Feb-18 17:33N 69°13' E 018°05'0 0.0
2017-Feb-18 16:33N 69°13' E 018°05'0 0.0
2017-Feb-18 15:33N 69°13' E 018°05'0 0.0
2017-Feb-18 14:33N 69°13' E 018°05'0 0.0
2017-Feb-18 13:33N 69°13' E 018°05'0 0.0
2017-Feb-18 12:33N 69°13' E 018°05'0 0.0
2017-Feb-18 11:33N 69°13' E 018°05'0 0.0
2017-Feb-18 10:33N 69°13' E 018°05'0 0.0
2017-Feb-18 09:33N 69°13' E 018°05'0 0.0
2017-Feb-18 08:33N 69°13' E 018°05'0 0.0
2017-Feb-18 07:33N 69°13' E 018°05'0 0.0
2017-Feb-18 06:33N 69°13' E 018°05'0 0.0
2017-Feb-18 05:33N 69°13' E 018°05'0 0.0
2017-Feb-18 04:33N 69°13' E 018°05'0 0.0
2017-Feb-18 03:33N 69°13' E 018°05'0 0.0
2017-Feb-18 02:33N 69°13' E 018°05'0 0.0
2017-Feb-18 01:33N 69°13' E 018°05'0 0.0
2017-Feb-18 00:32N 69°13' E 018°05'0 0.0
2017-Feb-17 23:32N 69°13' E 018°05'0 0.0
2017-Feb-17 22:32N 69°13' E 018°05'0 0.0
2017-Feb-17 21:32N 69°13' E 018°05'0 0.0
2017-Feb-17 20:32N 69°13' E 018°05'0 0.0
2017-Feb-17 19:32N 69°13' E 018°05'0 0.0
2017-Feb-17 18:32N 69°13' E 018°05'0 0.0
2017-Feb-17 17:32N 69°13' E 018°05'0 0.0
2017-Feb-17 16:32N 69°13' E 018°05'0 0.0
2017-Feb-17 15:32N 69°13' E 018°05'0 0.0
2017-Feb-17 14:32N 69°13' E 018°05'0 0.0
2017-Feb-17 13:32N 69°13' E 018°05'0 0.0
2017-Feb-17 12:32N 69°13' E 018°05'0 0.0
2017-Feb-17 11:32N 69°13' E 018°05'0 0.0
2017-Feb-17 10:32N 69°13' E 018°05'0 0.0
2017-Feb-17 09:32N 69°13' E 018°05'0 0.0
2017-Feb-17 08:32N 69°13' E 018°05'0 0.0
2017-Feb-17 07:32N 69°13' E 018°05'0 0.0
2017-Feb-17 06:32N 69°13' E 018°05'0 0.0
2017-Feb-17 05:32N 69°13' E 018°05'0 0.0
2017-Feb-17 04:32N 69°13' E 018°05'0 0.0
2017-Feb-17 03:32N 69°13' E 018°05'0 0.0
2017-Feb-17 02:32N 69°13' E 018°05'0 0.0
2017-Feb-17 01:32N 69°13' E 018°05'0 0.0
2017-Feb-17 00:32N 69°13' E 018°05'0 0.0
2017-Feb-16 23:32N 69°13' E 018°05'0 0.0
2017-Feb-16 22:32N 69°13' E 018°05'0 0.0
2017-Feb-16 21:32N 69°13' E 018°05'0 0.0
2017-Feb-16 20:32N 69°13' E 018°05'0 0.0
2017-Feb-16 19:32N 69°13' E 018°05'0 0.0
2017-Feb-16 18:32N 69°13' E 018°05'0 0.0
2017-Feb-16 17:32N 69°13' E 018°05'0 0.0
2017-Feb-16 16:32N 69°13' E 018°05'0 0.0
2017-Feb-16 15:32N 69°13' E 018°05'0 0.0
2017-Feb-16 14:32N 69°13' E 018°05'0 0.0
2017-Feb-16 13:32N 69°13' E 018°05'0 0.0
2017-Feb-16 12:32N 69°13' E 018°05'0 0.0
2017-Feb-16 11:32N 69°13' E 018°05'0 0.0
2017-Feb-16 10:32N 69°13' E 018°05'0 0.0
2017-Feb-16 09:32N 69°13' E 018°05'0 0.0
2017-Feb-16 08:32N 69°13' E 018°05'0 0.0
2017-Feb-16 07:32N 69°13' E 018°05'0 0.0
2017-Feb-16 06:32N 69°13' E 018°05'0 0.0
2017-Feb-16 05:32N 69°13' E 018°05'6 6.1
2017-Feb-16 04:33N 69°09' E 017°53'1110.6
2017-Feb-16 03:33N 69°05' E 017°25'1010.4
2017-Feb-16 02:33N 68°57' E 017°08'1110.6
2017-Feb-16 01:33N 68°48' E 016°51'1110.9
2017-Feb-16 00:32N 68°39' E 016°36'9 8.8
2017-Feb-15 23:33N 68°33' E 016°17'1010.4
2017-Feb-15 22:33N 68°25' E 016°02'10 9.5
2017-Feb-15 21:33N 68°17' E 015°47'9 9.4
2017-Feb-15 20:33N 68°11' E 015°27'9 9.4
2017-Feb-15 19:33N 68°06' E 015°05'9 9.3
2017-Feb-15 18:33N 68°01' E 014°44'10 9.7
2017-Feb-15 17:33N 67°54' E 014°28'9 9.2
2017-Feb-15 16:33N 67°47' E 014°12'9 8.9
2017-Feb-15 15:32N 67°41' E 013°55'9 9.4
2017-Feb-15 14:33N 67°34' E 013°39'9 9.1
2017-Feb-15 13:33N 67°27' E 013°23'  

Dump ship's entire track history